x

Neah Bay, - 6nm North Of Cape Flattery, Wa (traffic Separation Lighted Buoy) (46087) Wave Buoy

4:20 - Wed 28th Sep 2016 All times are PDT. -7 hours from GMT.

  • Sig Wave height 4.3ft
  • Swell Direction
  • Peak Period 7s
  • Average Period 6s
  • Wind
    11mph, 13mph gusts
  • Sea Temp 53°f
  • Ar Temp 53°f
  • Sea Pressure 1018.7mb
  • Neah Bay, - 6nm North Of Cape Flattery, Wa     (traffic Separation Lighted Buoy)
  • Neah Bay, - 6nm North Of Cape Flattery, Wa     (traffic Separation Lighted Buoy)

More Historic Weather Station data

Upgrade to MSW Pro to gain access to the past 30 days of data for over 8000 Wavebouys and Weather Stations around the globe.

Join Pro

Comparision Forecast

View Surf forecast
   
Qua 09/28 4:20 4.5ft 7s 6s 11 13 mph 1018.7mb 53f 53f
3:50 4.5ft 9s 6s 9 11 mph 1018.8mb 53f 53f
3:20 4.5ft 9s 6s 9
mph
1019mb 53f 53f
2:50 5ft 7s 6s 7 9 mph 1019.2mb 53f 53f
2:20 5ft 8s 6s 7
mph
1019.3mb 53f 53f
1:50 5.5ft 8s 6s 4 7 mph 1019.4mb 53f 52f
1:20 5ft 7s 6s 7
mph
1019.6mb 52f 52f
12:50 6ft 8s 6s 2 4 mph 1019.7mb 52f 52f
12:20 5ft 7s 6s 2
mph
1020mb 52f 52f
11:50 5.5ft 6s 6s 2 4 mph 1020mb 52f 52f
11:20 5.5ft 7s 6s 4 7 mph 1019.9mb 51f 52f
10:50 5ft 9s 6s 7 9 mph 1020.1mb 51f 52f
10:20 5ft 7s 6s 4 9 mph 1020.2mb 51f 52f
9:50 5ft 9s 6s 7
mph
1020.3mb 51f 52f
9:20 5ft 8s 6s 7
mph
1020.1mb 51f 51f
8:50 5ft 7s 6s 4 7 mph 1020.1mb 51f 51f
8:20 4.5ft 8s 7s 9
mph
1020.1mb 51f 51f
7:50 4.5ft 7s 7s 11 13 mph 1020mb 51f 51f
7:20 4.5ft 7s 7s 7 9 mph 1020.2mb 51f 50f
6:50 4.5ft 7s 7s 4
mph
1020mb 51f 51f
6:20 5ft 7s 7s 4
mph
1020mb 51f 51f
5:50 4.5ft 9s 7s 4
mph
1020.2mb 51f 51f
5:20 5ft 7s 7s 2 4 mph 1019.9mb 51f 51f
4:50 4.5ft 7s 7s  -  2 mph 1019.9mb 51f 51f
4:20 5ft 9s 7s 2
mph
1020mb 51f 51f
3:50 5ft 8s 7s  -  2 mph 1020.1mb 51f 50f
3:20 5.5ft 8s 7s 2
mph
1020mb 51f 51f
2:50 5ft 7s 7s 4 7 mph 1020.3mb 51f 51f
2:20 5ft 7s 6s 9 11 mph 1020.3mb 51f 52f
1:50 4.5ft 7s 6s 9 11 mph 1020.4mb 51f 53f
1:20 5ft 10s 6s 7 9 mph 1020.4mb 51f 52f
12:50 5ft 9s 6s 2 4 mph 1020.5mb 52f 51f
12:20 5ft 8s 6s 2 4 mph 1020.6mb 52f 51f
Ter 09/27 11:50 5ft 7s 6s 2 4 mph 1020.5mb 52f 51f
11:20 5ft 7s 6s  -  2 mph 1020.6mb 52f 51f
10:50 5ft 6s 6s  -  mph 1020.9mb 52f 51f
10:20 5ft 8s 6s 2 4 mph 1020.8mb 52f 51f
9:50 5ft 8s 6s 2 4 mph 1020.9mb 52f 51f
9:20 5ft 8s 7s 4
mph
1021mb 52f 51f
8:50 5.5ft 7s 7s 4 7 mph 1021mb 52f 51f
8:20 5ft 8s 7s 4 7 mph 1021.2mb 52f 52f
7:50 5.5ft 7s 7s 4
mph
1021.1mb 52f 52f
7:20 6ft 7s 7s 4 7 mph 1021.2mb 53f 53f
6:50 5ft 7s 7s 4 7 mph 1021.2mb 53f 52f
6:20 5ft 7s 7s 2 4 mph 1021.4mb 53f 50f
5:50 5.5ft 8s 7s  -  2 mph 1021.6mb 53f 51f
5:20 5.5ft 8s 7s  -  2 mph 1021.9mb 53f 51f
4:50 5.5ft 8s 7s 2
mph
1022.1mb 53f 50f
4:20 6ft 8s 7s 2
mph
1022.4mb 53f 51f
3:50 6ft 8s 7s 2 4 mph 1022.5mb 53f 51f
3:20 5.5ft 9s 7s  -  2 mph 1022.7mb 53f 51f
2:50 6ft 8s 7s 4 7 mph 1022.7mb 53f 51f
2:20 6ft 7s 7s 2
mph
1023mb 52f 51f
1:50 5.5ft 10s 7s 2 4 mph 1023.1mb 52f 51f
1:20 6ft 7s 7s 2
mph
1023mb 52f 51f
12:50 5.5ft 11s 7s  -  2 mph 1023mb 52f 52f
12:20 6ft 8s 6s 2 4 mph 1023.1mb 52f 52f
11:50 6ft 7s 7s 2
mph
1023mb 52f 52f
11:20 7ft 7s 7s 2 4 mph 1023mb 52f 52f
10:50 6ft 7s 6s 2
mph
1023.1mb 51f 51f
10:20 7ft 10s 7s  -  2 mph 1023mb 51f 51f
9:50 6.5ft 7s 7s  -  2 mph 1022.9mb 51f 51f
9:20 6ft 8s 7s  -  2 mph 1022.7mb 51f 51f
8:50 6.5ft 9s 7s 4 7 mph 1022.6mb 51f 51f
8:20 6ft 8s 7s  -  2 mph 1022.4mb 51f 50f
7:50 6ft 10s 7s  -  2 mph 1022.1mb 51f 51f
7:20 5ft 10s 7s  -  2 mph 1021.9mb 51f 51f
6:50 5ft 10s 7s  -  2 mph 1021.7mb 51f 51f
6:20 4.5ft 11s 7s  -  2 mph 1021.8mb 51f 51f
5:50 4.5ft 10s 7s  -  2 mph 1021.6mb 51f 51f
5:20 5ft 10s 7s 2 4 mph 1021.5mb 51f 51f
4:50 4.5ft 10s 7s 4 7 mph 1021.4mb 51f 51f
4:20 4.5ft 11s 8s 7 9 mph 1021.1mb 51f 51f
3:50 4.5ft 11s 7s 7 9 mph 1021mb 51f 53f
3:20 5ft 11s 8s 7
mph
1020.8mb 51f 52f
2:50 5ft 10s 8s 9 11 mph 1020.6mb 51f 53f
2:20 5ft 11s 7s 9 11 mph 1020.4mb 51f 54f
1:50 4.5ft 10s 7s 9 11 mph 1020.2mb 52f 54f
1:20 5ft 11s 8s 4 7 mph 1020.1mb 52f 54f
12:50 5ft 11s 7s 7
mph
1019.9mb 53f 55f
12:20 5ft 11s 7s 4
mph
1019.8mb 53f 55f
Seg 09/26 11:50 6ft 11s 8s  -  2 mph 1019.4mb 53f 55f
11:20 5.5ft 11s 8s 2
mph
1019.2mb 53f 54f
10:50 5ft 11s 7s 4 7 mph 1019.1mb 53f 56f
10:20 5ft 10s 8s 7 9 mph 1019mb 53f 56f
9:50 5.5ft 10s 8s 7 11 mph 1018.9mb 54f 56f
9:20 5.5ft 10s 8s 4 7 mph 1018.5mb 55f 56f
8:50 5.5ft 11s 8s 7 9 mph 1018.3mb 56f 57f
8:20 5.5ft 10s 8s 11
mph
1018.1mb 56f 57f
7:50 5.5ft 9s 8s 9 11 mph 1017.9mb 56f 57f
7:20 5ft 11s 8s 9 11 mph 1017.7mb 57f 56f
6:50 5.5ft 9s 9s 9 11 mph 1017.6mb 57f 57f
6:20 5.5ft 9s 9s 7 9 mph 1017.6mb 57f 57f
5:50 5ft 9s 9s 4 7 mph 1017.6mb 56f 57f
5:20 4.5ft 9s 9s 7
mph
1017.8mb 56f 57f
4:50 4.5ft 9s 8s 7 9 mph 1017.9mb 55f 57f
4:20 4.5ft 10s 9s 9 11 mph 1018mb 54f 58f
3:50 4.5ft 9s 8s 7 9 mph 1018.1mb 53f 58f
3:20 4ft 10s 8s 9
mph
1018.3mb 52f 58f
2:50 4.5ft 10s 8s 2
mph
1018.3mb 52f 58f
2:20 4.5ft 9s 8s 2
mph
1018.4mb 52f 56f
1:50 4ft 10s 8s 2 4 mph 1018.6mb 52f 56f
1:20 3.5ft 9s 8s 2
mph
1018.8mb 51f 55f
12:50 3.5ft 11s 8s 4
mph
1018.7mb 51f 54f
12:20 4ft 10s  -  4 7 mph 1018.7mb 51f 55f
11:50 3.5ft 9s 8s 9 11 mph 1018.7mb 51f 55f
11:20 3.5ft 9s 8s 11 13 mph 1018.7mb 51f 55f
10:50 4ft 10s 7s 11 13 mph 1019.2mb 51f 55f
10:20 4ft 10s 7s 13 16 mph 1019.1mb 51f 55f
9:50 4.5ft 9s 7s 16 20 mph 1018.9mb 51f 54f
9:20 4.5ft 10s 7s 16 20 mph 1018.9mb 51f 54f
8:50 4.5ft 10s 7s 18 20 mph 1019.1mb 51f 54f
8:20 4.5ft 10s 8s 20 22 mph 1019.1mb 51f 55f
7:50 4.5ft 9s 8s 18 20 mph 1019.2mb 51f 54f
7:20 4.5ft 10s 8s 16 20 mph 1019.8mb 51f 54f
6:50 4.5ft 9s 8s 16 20 mph 1019.9mb 51f 55f
6:20 4.5ft 9s 7s 18 20 mph 1020.3mb 51f 55f
5:50 5.5ft 9s 8s 20 25 mph 1019.8mb 51f 55f
5:20 5.5ft 10s 8s 20 25 mph 1019.9mb 51f 55f
4:50 5ft 9s 8s 18 22 mph 1020.4mb 51f 55f
4:20 5.5ft 9s 8s 18 20 mph 1020.6mb 51f 55f
3:50 5ft 9s 8s 18 20 mph 1021.1mb 51f 55f
3:20 5ft 9s 8s 18 20 mph 1021.5mb 51f 55f
2:50 5ft 9s 8s 16 18 mph 1021.7mb 52f 56f
2:20 5ft 10s 8s 18 20 mph 1021.8mb 52f 55f
1:50 4.5ft 9s 7s 16 18 mph 1022.4mb 53f 56f
1:20 4.5ft 8s 8s 13 18 mph 1023mb 54f 56f
12:50 4.5ft 10s 8s 13 18 mph 1023.2mb 55f 55f
12:20 4.5ft 9s 8s 13 18 mph 1023.5mb 55f 55f
Dom 09/25 11:50 4.5ft 10s 8s 16
mph
1023.6mb 56f 56f
11:20 4.5ft 10s 8s 13 18 mph 1023.7mb 56f 56f
10:50 4.5ft 10s 8s 16 18 mph 1023.8mb 56f 57f
10:20 4.5ft 10s 8s 13 16 mph 1024mb 56f 56f
9:50 4.5ft 10s 8s 11 16 mph 1024.4mb 56f 56f
9:20 4.5ft 11s 8s 11
mph
1024.7mb 56f 57f
8:50 4ft 16s 8s 11 13 mph 1024.9mb 56f 57f
8:20 4.5ft 11s 8s 11 13 mph 1025.2mb 56f 57f
7:50 4.5ft 10s 8s 13 16 mph 1025.4mb 56f 57f
7:20 4.5ft 11s 8s 13 16 mph 1025.5mb 56f 56f
6:50 4.5ft 10s 8s 11 13 mph 1026mb 56f 55f
6:20 4.5ft 11s 8s 11 13 mph 1026mb 56f 56f
5:50 4.5ft 11s 8s 13 16 mph 1026.3mb 56f 57f
5:20 4.5ft 11s 8s 13 16 mph 1026.6mb 56f 56f
4:50 5ft 11s 8s 13 16 mph 1027.1mb 56f 56f
4:20 5ft 11s 8s 13 16 mph 1027.5mb 56f 57f
3:50 5ft 11s 8s 11 13 mph 1027.9mb 56f 56f
3:20 5ft 11s 8s 11 16 mph 1028.3mb 56f 56f
2:50 5ft 10s 8s 11 13 mph 1028.4mb 55f 55f
2:20 5ft 10s 8s 13 16 mph 1028.6mb 54f 55f
1:50 6ft 11s 8s 13 16 mph 1028.9mb 53f 54f
1:20 6.5ft 10s 8s 13 16 mph 1029.2mb 53f 54f
12:50 6.5ft 10s 7s 13 16 mph 1029.1mb 53f 54f
12:20 6.5ft 10s 8s 11 13 mph 1029.2mb 52f 54f
11:50 6ft 10s 7s 11 13 mph 1029.3mb 52f 54f
11:20 6.5ft 10s 7s 11 13 mph 1029.2mb 51f 53f
10:50 6.5ft 10s 7s 11 13 mph 1029.2mb 51f 53f
10:20 7ft 8s 7s 11 16 mph 1029.1mb 51f 53f
9:50 6.5ft 10s 7s 11 13 mph 1029.2mb 51f 52f
9:20 6ft 9s 8s 9 13 mph 1029.2mb 51f 52f
8:50 5.5ft 9s 7s 11 13 mph 1029mb 51f 52f
8:20 6ft 8s 8s 9 11 mph 1028.8mb 51f 52f
7:50 6ft 9s 8s 11
mph
1028.4mb 51f 52f
7:20 5.5ft 9s 8s 9
mph
1028.4mb 51f 52f
6:50 5ft 9s 8s 11 13 mph 1028mb 51f 52f
6:20 4.5ft 10s 8s 11 13 mph 1028mb 51f 53f
5:50 4.5ft 10s 8s 11 13 mph 1027.9mb 51f 52f
5:20 4.5ft 11s 9s 11 13 mph 1028mb 52f 53f
4:50 4ft 11s 8s 11 13 mph 1028mb 52f 53f
4:20 4ft 10s 9s 11 13 mph 1028mb 52f 53f
3:50 4.5ft 10s 9s 9 11 mph 1028.1mb 52f 53f
3:20 4.5ft 11s 9s 11
mph
1028mb 52f 52f
2:50 4.5ft 11s 9s 11 13 mph 1028.1mb 53f 53f
2:20 4ft 10s 9s 11 13 mph 1028.3mb 55f 53f
1:50 4ft 11s 8s 9 13 mph 1028.5mb 55f 54f
1:20 4.5ft 11s 8s 13 16 mph 1028.2mb 55f 54f
12:50 4.5ft 11s 8s 13 16 mph 1028.1mb 56f 54f
12:20 4ft 11s 8s 13 16 mph 1028.4mb 56f 54f